sensor_id;sensor_type;location;lat;lon;timestamp;pressure;altitude;pressure_sealevel;temperature;humidity
76404;BME280;65232;48.358;2.122;2023-11-18T00:00:05;101776.03;;;8.91;100.00
76404;BME280;65232;48.358;2.122;2023-11-18T00:00:36;101783.06;;;8.92;100.00
76404;BME280;65232;48.358;2.122;2023-11-18T00:01:02;101780.63;;;8.89;100.00
76404;BME280;65232;48.358;2.122;2023-11-18T00:01:32;101780.53;;;8.90;100.00
76404;BME280;65232;48.358;2.122;2023-11-18T00:02:00;101774.41;;;8.88;100.00
76404;BME280;65232;48.358;2.122;2023-11-18T00:02:25;101776.31;;;8.86;100.00
76404;BME280;65232;48.358;2.122;2023-11-18T00:02:51;101778.13;;;8.86;100.00
76404;BME280;65232;48.358;2.122;2023-11-18T00:03:16;101777.75;;;8.92;100.00
76404;BME280;65232;48.358;2.122;2023-11-18T00:03:42;101770.03;;;8.87;100.00
76404;BME280;65232;48.358;2.122;2023-11-18T00:04:07;101777.19;;;8.87;100.00
76404;BME280;65232;48.358;2.122;2023-11-18T00:04:40;101775.38;;;8.87;100.00
76404;BME280;65232;48.358;2.122;2023-11-18T00:05:06;101773.47;;;8.89;100.00
76404;BME280;65232;48.358;2.122;2023-11-18T00:05:32;101771.44;;;8.93;100.00
76404;BME280;65232;48.358;2.122;2023-11-18T00:05:57;101768.22;;;8.88;100.00
76404;BME280;65232;48.358;2.122;2023-11-18T00:06:23;101767.06;;;8.92;100.00
76404;BME280;65232;48.358;2.122;2023-11-18T00:06:48;101763.84;;;8.87;100.00
76404;BME280;65232;48.358;2.122;2023-11-18T00:07:14;101770.13;;;8.86;100.00
76404;BME280;65232;48.358;2.122;2023-11-18T00:07:39;101771.75;;;8.88;100.00
76404;BME280;65232;48.358;2.122;2023-11-18T00:08:05;101766.69;;;8.83;100.00
76404;BME280;65232;48.358;2.122;2023-11-18T00:08:31;101768.41;;;8.84;100.00
76404;BME280;65232;48.358;2.122;2023-11-18T00:08:56;101761.34;;;8.83;100.00
76404;BME280;65232;48.358;2.122;2023-11-18T00:09:21;101760.13;;;8.89;100.00
76404;BME280;65232;48.358;2.122;2023-11-18T00:09:49;101765.63;;;8.86;100.00
76404;BME280;65232;48.358;2.122;2023-11-18T00:10:15;101756.78;;;8.86;100.00
76404;BME280;65232;48.358;2.122;2023-11-18T00:10:40;101767.38;;;8.87;100.00
76404;BME280;65232;48.358;2.122;2023-11-18T00:11:06;101767.44;;;8.86;100.00
76404;BME280;65232;48.358;2.122;2023-11-18T00:11:31;101773.47;;;8.89;100.00
76404;BME280;65232;48.358;2.122;2023-11-18T00:11:57;101776.63;;;8.96;100.00
76404;BME280;65232;48.358;2.122;2023-11-18T00:12:23;101770.50;;;8.94;100.00
76404;BME280;65232;48.358;2.122;2023-11-18T00:12:49;101767.94;;;9.06;100.00
76404;BME280;65232;48.358;2.122;2023-11-18T00:13:15;101769.19;;;9.01;100.00
76404;BME280;65232;48.358;2.122;2023-11-18T00:13:40;101767.00;;;9.07;100.00
76404;BME280;65232;48.358;2.122;2023-11-18T00:14:07;101777.03;;;9.04;100.00
76404;BME280;65232;48.358;2.122;2023-11-18T00:14:32;101771.78;;;9.02;100.00
76404;BME280;65232;48.358;2.122;2023-11-18T00:14:58;101769.47;;;8.96;100.00
76404;BME280;65232;48.358;2.122;2023-11-18T00:15:23;101772.22;;;8.95;100.00
76404;BME280;65232;48.358;2.122;2023-11-18T00:15:49;101772.31;;;8.93;100.00
76404;BME280;65232;48.358;2.122;2023-11-18T00:16:14;101773.34;;;8.91;100.00
76404;BME280;65232;48.358;2.122;2023-11-18T00:16:40;101776.88;;;8.91;100.00
76404;BME280;65232;48.358;2.122;2023-11-18T00:17:06;101773.16;;;8.94;100.00
76404;BME280;65232;48.358;2.122;2023-11-18T00:17:31;101771.53;;;8.91;100.00
76404;BME280;65232;48.358;2.122;2023-11-18T00:17:57;101773.16;;;8.94;100.00
76404;BME280;65232;48.358;2.122;2023-11-18T00:18:22;101767.94;;;8.92;100.00
76404;BME280;65232;48.358;2.122;2023-11-18T00:18:48;101776.53;;;8.97;100.00
76404;BME280;65232;48.358;2.122;2023-11-18T00:19:14;101776.63;;;8.96;100.00
76404;BME280;65232;48.358;2.122;2023-11-18T00:19:39;101768.44;;;8.99;100.00
76404;BME280;65232;48.358;2.122;2023-11-18T00:20:05;101766.63;;;8.99;100.00
76404;BME280;65232;48.358;2.122;2023-11-18T00:20:34;101765.66;;;9.00;100.00
76404;BME280;65232;48.358;2.122;2023-11-18T00:21:00;101763.25;;;8.96;100.00
76404;BME280;65232;48.358;2.122;2023-11-18T00:21:26;101770.22;;;8.98;100.00
76404;BME280;65232;48.358;2.122;2023-11-18T00:21:51;101772.31;;;8.93;100.00
76404;BME280;65232;48.358;2.122;2023-11-18T00:22:16;101761.94;;;8.89;100.00
76404;BME280;65232;48.358;2.122;2023-11-18T00:22:42;101767.19;;;8.90;100.00
76404;BME280;65232;48.358;2.122;2023-11-18T00:23:08;101763.06;;;8.84;100.00
76404;BME280;65232;48.358;2.122;2023-11-18T00:23:34;101766.00;;;8.80;100.00
76404;BME280;65232;48.358;2.122;2023-11-18T00:24:00;101763.16;;;8.83;100.00
76404;BME280;65232;48.358;2.122;2023-11-18T00:24:25;101763.84;;;8.87;100.00
76404;BME280;65232;48.358;2.122;2023-11-18T00:24:50;101762.97;;;8.86;100.00
76404;BME280;65232;48.358;2.122;2023-11-18T00:25:17;101767.75;;;8.95;100.00
76404;BME280;65232;48.358;2.122;2023-11-18T00:25:43;101757.34;;;8.91;100.00
76404;BME280;65232;48.358;2.122;2023-11-18T00:26:10;101756.28;;;8.93;100.00
76404;BME280;65232;48.358;2.122;2023-11-18T00:26:36;101762.69;;;8.91;100.00
76404;BME280;65232;48.358;2.122;2023-11-18T00:27:02;101761.28;;;8.99;100.00
76404;BME280;65232;48.358;2.122;2023-11-18T00:27:31;101765.94;;;8.96;100.00
76404;BME280;65232;48.358;2.122;2023-11-18T00:27:56;101763.00;;;9.00;100.00
76404;BME280;65232;48.358;2.122;2023-11-18T00:28:22;101761.47;;;8.96;100.00
76404;BME280;65232;48.358;2.122;2023-11-18T00:28:47;101760.78;;;8.93;100.00
76404;BME280;65232;48.358;2.122;2023-11-18T00:29:13;101768.22;;;8.88;100.00
76404;BME280;65232;48.358;2.122;2023-11-18T00:29:39;101762.78;;;8.89;100.00
76404;BME280;65232;48.358;2.122;2023-11-18T00:30:04;101766.13;;;8.93;100.00
76404;BME280;65232;48.358;2.122;2023-11-18T00:30:33;101761.63;;;8.93;100.00
76404;BME280;65232;48.358;2.122;2023-11-18T00:30:59;101761.97;;;9.03;100.00
76404;BME280;65232;48.358;2.122;2023-11-18T00:31:25;101757.84;;;8.97;100.00
76404;BME280;65232;48.358;2.122;2023-11-18T00:31:51;101764.38;;;8.92;100.00
76404;BME280;65232;48.358;2.122;2023-11-18T00:32:16;101759.06;;;8.92;100.00
76404;BME280;65232;48.358;2.122;2023-11-18T00:32:42;101758.88;;;8.95;100.00
76404;BME280;65232;48.358;2.122;2023-11-18T00:33:07;101748.69;;;9.01;100.00
76404;BME280;65232;48.358;2.122;2023-11-18T00:33:33;101761.28;;;8.99;100.00
76404;BME280;65232;48.358;2.122;2023-11-18T00:33:59;101760.31;;;9.00;100.00
76404;BME280;65232;48.358;2.122;2023-11-18T00:34:24;101766.53;;;9.01;100.00
76404;BME280;65232;48.358;2.122;2023-11-18T00:34:50;101763.84;;;9.01;100.00
76404;BME280;65232;48.358;2.122;2023-11-18T00:35:16;101754.72;;;9.05;100.00
76404;BME280;65232;48.358;2.122;2023-11-18T00:35:41;101757.16;;;9.08;100.00
76404;BME280;65232;48.358;2.122;2023-11-18T00:36:07;101757.84;;;9.11;100.00
76404;BME280;65232;48.358;2.122;2023-11-18T00:36:33;101755.19;;;9.11;100.00
76404;BME280;65232;48.358;2.122;2023-11-18T00:36:59;101750.88;;;9.09;100.00
76404;BME280;65232;48.358;2.122;2023-11-18T00:37:26;101753.56;;;9.09;100.00
76404;BME280;65232;48.358;2.122;2023-11-18T00:37:52;101750.88;;;9.09;100.00
76404;BME280;65232;48.358;2.122;2023-11-18T00:38:17;101749.06;;;9.09;100.00
76404;BME280;65232;48.358;2.122;2023-11-18T00:38:43;101748.31;;;9.07;100.00
76404;BME280;65232;48.358;2.122;2023-11-18T00:39:08;101749.75;;;9.13;100.00
76404;BME280;65232;48.358;2.122;2023-11-18T00:39:33;101755.78;;;9.16;100.00
76404;BME280;65232;48.358;2.122;2023-11-18T00:39:59;101750.25;;;9.19;100.00
76404;BME280;65232;48.358;2.122;2023-11-18T00:40:25;101757.50;;;9.17;100.00
76404;BME280;65232;48.358;2.122;2023-11-18T00:40:51;101752.16;;;9.17;100.00
76404;BME280;65232;48.358;2.122;2023-11-18T00:41:17;101742.88;;;9.09;100.00
76404;BME280;65232;48.358;2.122;2023-11-18T00:41:42;101751.28;;;9.17;100.00
76404;BME280;65232;48.358;2.122;2023-11-18T00:42:07;101753.09;;;9.16;100.00
76404;BME280;65232;48.358;2.122;2023-11-18T00:42:33;101756.63;;;9.17;100.00
76404;BME280;65232;48.358;2.122;2023-11-18T00:42:58;101759.22;;;9.18;100.00
76404;BME280;65232;48.358;2.122;2023-11-18T00:43:24;101753.19;;;9.15;100.00
76404;BME280;65232;48.358;2.122;2023-11-18T00:43:49;101751.66;;;9.11;100.00
76404;BME280;65232;48.358;2.122;2023-11-18T00:44:15;101754.22;;;9.12;100.00
76404;BME280;65232;48.358;2.122;2023-11-18T00:44:41;101752.59;;;9.10;100.00
76404;BME280;65232;48.358;2.122;2023-11-18T00:45:07;101759.66;;;9.11;100.00
76404;BME280;65232;48.358;2.122;2023-11-18T00:45:33;101755.19;;;9.11;100.00
76404;BME280;65232;48.358;2.122;2023-11-18T00:45:59;101755.59;;;9.19;100.00
76404;BME280;65232;48.358;2.122;2023-11-18T00:46:24;101746.31;;;9.25;100.00
76404;BME280;65232;48.358;2.122;2023-11-18T00:46:49;101758.72;;;9.26;100.00
76404;BME280;65232;48.358;2.122;2023-11-18T00:47:15;101749.16;;;9.22;100.00
76404;BME280;65232;48.358;2.122;2023-11-18T00:47:40;101748.41;;;9.20;100.00
76404;BME280;65232;48.358;2.122;2023-11-18T00:48:09;101740.22;;;9.23;100.00
76404;BME280;65232;48.358;2.122;2023-11-18T00:48:34;101744.59;;;9.24;100.00
76404;BME280;65232;48.358;2.122;2023-11-18T00:49:00;101739.25;;;9.24;100.00
76404;BME280;65232;48.358;2.122;2023-11-18T00:49:25;101739.56;;;9.19;100.00
76404;BME280;65232;48.358;2.122;2023-11-18T00:49:51;101747.75;;;9.16;100.00
76404;BME280;65232;48.358;2.122;2023-11-18T00:50:18;101736.03;;;9.19;100.00
76404;BME280;65232;48.358;2.122;2023-11-18T00:50:43;101743.19;;;9.18;100.00
76404;BME280;65232;48.358;2.122;2023-11-18T00:51:09;101734.22;;;9.19;100.00
76404;BME280;65232;48.358;2.122;2023-11-18T00:51:34;101735.25;;;9.17;100.00
76404;BME280;65232;48.358;2.122;2023-11-18T00:52:00;101735.16;;;9.18;100.00
76404;BME280;65232;48.358;2.122;2023-11-18T00:52:25;101732.00;;;9.26;100.00
76404;BME280;65232;48.358;2.122;2023-11-18T00:52:51;101734.00;;;9.23;100.00
76404;BME280;65232;48.358;2.122;2023-11-18T00:53:16;101726.41;;;9.16;100.00
76404;BME280;65232;48.358;2.122;2023-11-18T00:53:41;101730.00;;;9.15;100.00
76404;BME280;65232;48.358;2.122;2023-11-18T00:54:07;101732.59;;;9.17;100.00
76404;BME280;65232;48.358;2.122;2023-11-18T00:54:34;101738.78;;;9.17;100.00
76404;BME280;65232;48.358;2.122;2023-11-18T00:55:00;101730.97;;;9.14;100.00
76404;BME280;65232;48.358;2.122;2023-11-18T00:55:26;101725.34;;;9.19;100.00
76404;BME280;65232;48.358;2.122;2023-11-18T00:55:52;101720.00;;;9.19;100.00
76404;BME280;65232;48.358;2.122;2023-11-18T00:56:17;101727.16;;;9.18;100.00
76404;BME280;65232;48.358;2.122;2023-11-18T00:56:43;101729.91;;;9.17;100.00
76404;BME280;65232;48.358;2.122;2023-11-18T00:57:08;101725.53;;;9.16;100.00
76404;BME280;65232;48.358;2.122;2023-11-18T00:57:34;101723.31;;;9.23;100.00
76404;BME280;65232;48.358;2.122;2023-11-18T00:58:00;101721.59;;;9.22;100.00
76404;BME280;65232;48.358;2.122;2023-11-18T00:58:25;101724.50;;;9.18;100.00
76404;BME280;65232;48.358;2.122;2023-11-18T00:58:50;101727.25;;;9.17;100.00
76404;BME280;65232;48.358;2.122;2023-11-18T00:59:17;101714.19;;;9.12;100.00
76404;BME280;65232;48.358;2.122;2023-11-18T00:59:43;101716.94;;;9.11;100.00
76404;BME280;65232;48.358;2.122;2023-11-18T01:00:12;101713.41;;;9.10;100.00
76404;BME280;65232;48.358;2.122;2023-11-18T01:00:39;101713.13;;;9.15;100.00
76404;BME280;65232;48.358;2.122;2023-11-18T01:01:04;101707.13;;;9.11;100.00
76404;BME280;65232;48.358;2.122;2023-11-18T01:01:31;101713.22;;;9.13;100.00
76404;BME280;65232;48.358;2.122;2023-11-18T01:01:57;101706.25;;;9.11;100.00
76404;BME280;65232;48.358;2.122;2023-11-18T01:02:22;101713.22;;;9.13;100.00
76404;BME280;65232;48.358;2.122;2023-11-18T01:02:48;101702.63;;;9.12;100.00
76404;BME280;65232;48.358;2.122;2023-11-18T01:03:14;101702.63;;;9.12;100.00
76404;BME280;65232;48.358;2.122;2023-11-18T01:03:40;101704.34;;;9.13;100.00
76404;BME280;65232;48.358;2.122;2023-11-18T01:04:05;101701.59;;;9.14;100.00
76404;BME280;65232;48.358;2.122;2023-11-18T01:04:30;101705.22;;;9.13;100.00
76404;BME280;65232;48.358;2.122;2023-11-18T01:04:58;101703.50;;;9.12;100.00
76404;BME280;65232;48.358;2.122;2023-11-18T01:05:23;101695.22;;;9.17;100.00
76404;BME280;65232;48.358;2.122;2023-11-18T01:05:49;101689.97;;;9.15;100.00
76404;BME280;65232;48.358;2.122;2023-11-18T01:06:14;101694.44;;;9.15;100.00
76404;BME280;65232;48.358;2.122;2023-11-18T01:06:43;101693.59;;;9.14;100.00
76404;BME280;65232;48.358;2.122;2023-11-18T01:07:08;101690.06;;;9.14;100.00
76404;BME280;65232;48.358;2.122;2023-11-18T01:07:34;101690.72;;;9.17;100.00
76404;BME280;65232;48.358;2.122;2023-11-18T01:07:59;101696.06;;;9.17;100.00
76404;BME280;65232;48.358;2.122;2023-11-18T01:08:25;101698.94;;;9.14;100.00
76404;BME280;65232;48.358;2.122;2023-11-18T01:08:50;101693.50;;;9.16;100.00
76404;BME280;65232;48.358;2.122;2023-11-18T01:09:15;101695.22;;;9.17;100.00
76404;BME280;65232;48.358;2.122;2023-11-18T01:09:41;101688.25;;;9.14;100.00
76404;BME280;65232;48.358;2.122;2023-11-18T01:10:07;101699.88;;;9.13;100.00
76404;BME280;65232;48.358;2.122;2023-11-18T01:10:33;101699.88;;;9.13;100.00
76404;BME280;65232;48.358;2.122;2023-11-18T01:10:58;101704.16;;;9.16;100.00
76404;BME280;65232;48.358;2.122;2023-11-18T01:11:23;101696.06;;;9.17;100.00
76404;BME280;65232;48.358;2.122;2023-11-18T01:11:49;101703.13;;;9.18;100.00
76404;BME280;65232;48.358;2.122;2023-11-18T01:12:14;101708.56;;;9.17;100.00
76404;BME280;65232;48.358;2.122;2023-11-18T01:12:40;101705.13;;;9.15;100.00
76404;BME280;65232;48.358;2.122;2023-11-18T01:13:06;101705.13;;;9.15;100.00
76404;BME280;65232;48.358;2.122;2023-11-18T01:13:31;101710.56;;;9.13;100.00
76404;BME280;65232;48.358;2.122;2023-11-18T01:13:56;101707.13;;;9.11;100.00
76404;BME280;65232;48.358;2.122;2023-11-18T01:14:22;101708.66;;;9.15;100.00
76404;BME280;65232;48.358;2.122;2023-11-18T01:14:51;101713.81;;;9.18;100.00
76404;BME280;65232;48.358;2.122;2023-11-18T01:15:17;101708.75;;;9.14;100.00
76404;BME280;65232;48.358;2.122;2023-11-18T01:15:42;101709.59;;;9.14;100.00
76404;BME280;65232;48.358;2.122;2023-11-18T01:16:08;101709.69;;;9.13;100.00
76404;BME280;65232;48.358;2.122;2023-11-18T01:16:34;101708.06;;;9.10;100.00
76404;BME280;65232;48.358;2.122;2023-11-18T01:16:59;101700.16;;;9.09;100.00
76404;BME280;65232;48.358;2.122;2023-11-18T01:17:25;101707.22;;;9.10;100.00
76404;BME280;65232;48.358;2.122;2023-11-18T01:17:50;101706.25;;;9.11;100.00
76404;BME280;65232;48.358;2.122;2023-11-18T01:18:16;101701.78;;;9.11;100.00
76404;BME280;65232;48.358;2.122;2023-11-18T01:18:43;101701.78;;;9.11;100.00
76404;BME280;65232;48.358;2.122;2023-11-18T01:19:08;101693.78;;;9.11;100.00
76404;BME280;65232;48.358;2.122;2023-11-18T01:19:34;101702.19;;;9.19;100.00
76404;BME280;65232;48.358;2.122;2023-11-18T01:20:00;101700.34;;;9.20;100.00
76404;BME280;65232;48.358;2.122;2023-11-18T01:20:31;101700.47;;;9.18;100.00
76404;BME280;65232;48.358;2.122;2023-11-18T01:20:56;101695.31;;;9.15;100.00
76404;BME280;65232;48.358;2.122;2023-11-18T01:21:24;101695.97;;;9.19;100.00
76404;BME280;65232;48.358;2.122;2023-11-18T01:21:49;101699.69;;;9.16;100.00
76404;BME280;65232;48.358;2.122;2023-11-18T01:22:15;101699.78;;;9.15;100.00
76404;BME280;65232;48.358;2.122;2023-11-18T01:22:43;101697.38;;;9.10;100.00
76404;BME280;65232;48.358;2.122;2023-11-18T01:23:10;101699.09;;;9.11;100.00
76404;BME280;65232;48.358;2.122;2023-11-18T01:23:36;101699.59;;;9.18;100.00
76404;BME280;65232;48.358;2.122;2023-11-18T01:24:01;101702.19;;;9.19;100.00
76404;BME280;65232;48.358;2.122;2023-11-18T01:24:27;101691.50;;;9.19;100.00
76404;BME280;65232;48.358;2.122;2023-11-18T01:24:53;101698.75;;;9.17;100.00
76404;BME280;65232;48.358;2.122;2023-11-18T01:25:18;101703.00;;;9.20;100.00
76404;BME280;65232;48.358;2.122;2023-11-18T01:25:44;101698.75;;;9.17;100.00
76404;BME280;65232;48.358;2.122;2023-11-18T01:26:11;101694.72;;;9.25;100.00
76404;BME280;65232;48.358;2.122;2023-11-18T01:26:37;101703.50;;;9.27;100.00
76404;BME280;65232;48.358;2.122;2023-11-18T01:27:03;101691.19;;;9.24;100.00
76404;BME280;65232;48.358;2.122;2023-11-18T01:27:29;101700.06;;;9.25;100.00
76404;BME280;65232;48.358;2.122;2023-11-18T01:27:54;101701.31;;;9.33;100.00
76404;BME280;65232;48.358;2.122;2023-11-18T01:28:19;101695.28;;;9.30;100.00
76404;BME280;65232;48.358;2.122;2023-11-18T01:28:45;101703.41;;;9.28;100.00
76404;BME280;65232;48.358;2.122;2023-11-18T01:29:11;101700.81;;;9.27;100.00
76404;BME280;65232;48.358;2.122;2023-11-18T01:29:38;101705.31;;;9.26;100.00
76404;BME280;65232;48.358;2.122;2023-11-18T01:30:05;101710.66;;;9.26;100.00
76404;BME280;65232;48.358;2.122;2023-11-18T01:30:30;101713.50;;;9.23;100.00
76404;BME280;65232;48.358;2.122;2023-11-18T01:30:57;101717.69;;;9.27;100.00
76404;BME280;65232;48.358;2.122;2023-11-18T01:31:23;101711.69;;;9.24;100.00
76404;BME280;65232;48.358;2.122;2023-11-18T01:31:48;101708.84;;;9.27;100.00
76404;BME280;65232;48.358;2.122;2023-11-18T01:32:14;101705.66;;;9.20;100.00
76404;BME280;65232;48.358;2.122;2023-11-18T01:32:39;101705.78;;;9.18;100.00
76404;BME280;65232;48.358;2.122;2023-11-18T01:33:07;101713.03;;;9.16;100.00
76404;BME280;65232;48.358;2.122;2023-11-18T01:33:33;101716.66;;;9.15;100.00
76404;BME280;65232;48.358;2.122;2023-11-18T01:34:02;101713.03;;;9.16;100.00
76404;BME280;65232;48.358;2.122;2023-11-18T01:34:30;101715.72;;;9.16;100.00
76404;BME280;65232;48.358;2.122;2023-11-18T01:34:57;101713.22;;;9.13;100.00
76404;BME280;65232;48.358;2.122;2023-11-18T01:35:22;101715.13;;;9.11;100.00
76404;BME280;65232;48.358;2.122;2023-11-18T01:35:51;101717.88;;;9.10;100.00
76404;BME280;65232;48.358;2.122;2023-11-18T01:36:18;101714.38;;;9.09;100.00
76404;BME280;65232;48.358;2.122;2023-11-18T01:36:43;101714.66;;;9.19;100.00
76404;BME280;65232;48.358;2.122;2023-11-18T01:37:09;101712.19;;;9.16;100.00
76404;BME280;65232;48.358;2.122;2023-11-18T01:37:34;101704.72;;;9.21;100.00
76404;BME280;65232;48.358;2.122;2023-11-18T01:37:59;101711.78;;;9.22;100.00
76404;BME280;65232;48.358;2.122;2023-11-18T01:38:25;101709.19;;;9.20;100.00
76404;BME280;65232;48.358;2.122;2023-11-18T01:38:51;101704.72;;;9.21;100.00
76404;BME280;65232;48.358;2.122;2023-11-18T01:39:17;101707.38;;;9.21;100.00
76404;BME280;65232;48.358;2.122;2023-11-18T01:39:46;101711.00;;;9.20;100.00
76404;BME280;65232;48.358;2.122;2023-11-18T01:40:11;101703.78;;;9.22;100.00
76404;BME280;65232;48.358;2.122;2023-11-18T01:40:40;101706.75;;;9.17;100.00
76404;BME280;65232;48.358;2.122;2023-11-18T01:41:06;101714.09;;;9.28;100.00
76404;BME280;65232;48.358;2.122;2023-11-18T01:41:32;101705.97;;;9.30;100.00
76404;BME280;65232;48.358;2.122;2023-11-18T01:41:57;101705.22;;;9.28;100.00
76404;BME280;65232;48.358;2.122;2023-11-18T01:42:24;101708.94;;;9.25;100.00
76404;BME280;65232;48.358;2.122;2023-11-18T01:42:49;101707.97;;;9.26;100.00
76404;BME280;65232;48.358;2.122;2023-11-18T01:43:15;101704.63;;;9.23;100.00
76404;BME280;65232;48.358;2.122;2023-11-18T01:43:41;101701.97;;;9.23;100.00
76404;BME280;65232;48.358;2.122;2023-11-18T01:44:06;101694.03;;;9.21;100.00
76404;BME280;65232;48.358;2.122;2023-11-18T01:44:33;101697.47;;;9.23;100.00
76404;BME280;65232;48.358;2.122;2023-11-18T01:45:00;101699.38;;;9.21;100.00
76404;BME280;65232;48.358;2.122;2023-11-18T01:45:28;101700.91;;;9.25;100.00
76404;BME280;65232;48.358;2.122;2023-11-18T01:45:55;101699.69;;;9.31;100.00
76404;BME280;65232;48.358;2.122;2023-11-18T01:46:22;101691.84;;;9.28;100.00
76404;BME280;65232;48.358;2.122;2023-11-18T01:46:48;101697.38;;;9.25;100.00
76404;BME280;65232;48.358;2.122;2023-11-18T01:47:14;101694.16;;;9.19;100.00
76404;BME280;65232;48.358;2.122;2023-11-18T01:47:40;101697.38;;;9.25;100.00
76404;BME280;65232;48.358;2.122;2023-11-18T01:48:07;101696.63;;;9.23;100.00
76404;BME280;65232;48.358;2.122;2023-11-18T01:48:34;101689.66;;;9.20;100.00
76404;BME280;65232;48.358;2.122;2023-11-18T01:49:02;101686.78;;;9.23;100.00
76404;BME280;65232;48.358;2.122;2023-11-18T01:49:29;101685.94;;;9.23;100.00
76404;BME280;65232;48.358;2.122;2023-11-18T01:49:54;101684.88;;;9.25;100.00
76404;BME280;65232;48.358;2.122;2023-11-18T01:50:20;101697.78;;;9.18;100.00
76404;BME280;65232;48.358;2.122;2023-11-18T01:50:45;101687.97;;;9.19;100.00
76404;BME280;65232;48.358;2.122;2023-11-18T01:51:13;101687.38;;;9.28;100.00
76404;BME280;65232;48.358;2.122;2023-11-18T01:51:43;101687.38;;;9.28;100.00
76404;BME280;65232;48.358;2.122;2023-11-18T01:52:10;101685.47;;;9.30;100.00
76404;BME280;65232;48.358;2.122;2023-11-18T01:52:37;101691.19;;;9.24;100.00
76404;BME280;65232;48.358;2.122;2023-11-18T01:53:04;101690.31;;;9.24;100.00
76404;BME280;65232;48.358;2.122;2023-11-18T01:53:29;101687.75;;;9.22;100.00
76404;BME280;65232;48.358;2.122;2023-11-18T01:53:55;101691.38;;;9.21;100.00
76404;BME280;65232;48.358;2.122;2023-11-18T01:54:22;101683.25;;;9.23;100.00
76404;BME280;65232;48.358;2.122;2023-11-18T01:54:49;101676.28;;;9.20;100.00
76404;BME280;65232;48.358;2.122;2023-11-18T01:55:14;101678.78;;;9.23;100.00
76404;BME280;65232;48.358;2.122;2023-11-18T01:55:42;101684.03;;;9.25;100.00
76404;BME280;65232;48.358;2.122;2023-11-18T01:56:07;101688.50;;;9.24;100.00
76404;BME280;65232;48.358;2.122;2023-11-18T01:56:33;101675.16;;;9.24;100.00
76404;BME280;65232;48.358;2.122;2023-11-18T01:56:59;101678.69;;;9.25;100.00
76404;BME280;65232;48.358;2.122;2023-11-18T01:57:27;101677.34;;;9.32;100.00
76404;BME280;65232;48.358;2.122;2023-11-18T01:57:52;101678.22;;;9.32;100.00
76404;BME280;65232;48.358;2.122;2023-11-18T01:58:19;101679.34;;;9.28;100.00
76404;BME280;65232;48.358;2.122;2023-11-18T01:58:45;101677.63;;;9.27;100.00
76404;BME280;65232;48.358;2.122;2023-11-18T01:59:11;101671.34;;;9.28;100.00
76404;BME280;65232;48.358;2.122;2023-11-18T01:59:43;101671.53;;;9.25;100.00
76404;BME280;65232;48.358;2.122;2023-11-18T02:00:09;101672.97;;;9.31;100.00
76404;BME280;65232;48.358;2.122;2023-11-18T02:00:40;101673.81;;;9.31;100.00
76404;BME280;65232;48.358;2.122;2023-11-18T02:01:07;101675.66;;;9.31;100.00
76404;BME280;65232;48.358;2.122;2023-11-18T02:01:33;101676.59;;;9.30;100.00
76404;BME280;65232;48.358;2.122;2023-11-18T02:02:00;101666.78;;;9.30;100.00
76404;BME280;65232;48.358;2.122;2023-11-18T02:02:26;101676.78;;;9.27;100.00
76404;BME280;65232;48.358;2.122;2023-11-18T02:02:52;101673.16;;;9.28;100.00
76404;BME280;65232;48.358;2.122;2023-11-18T02:03:17;101672.47;;;9.24;100.00
76404;BME280;65232;48.358;2.122;2023-11-18T02:03:43;101673.53;;;9.22;100.00
76404;BME280;65232;48.358;2.122;2023-11-18T02:04:09;101673.16;;;9.28;100.00
76404;BME280;65232;48.358;2.122;2023-11-18T02:04:34;101675.25;;;9.23;100.00
76404;BME280;65232;48.358;2.122;2023-11-18T02:05:00;101670.78;;;9.23;100.00
76404;BME280;65232;48.358;2.122;2023-11-18T02:05:26;101666.28;;;9.24;100.00
76404;BME280;65232;48.358;2.122;2023-11-18T02:05:51;101673.44;;;9.23;100.00
76404;BME280;65232;48.358;2.122;2023-11-18T02:06:17;101675.16;;;9.24;100.00
76404;BME280;65232;48.358;2.122;2023-11-18T02:06:43;101671.09;;;9.18;100.00
76404;BME280;65232;48.358;2.122;2023-11-18T02:07:10;101672.03;;;9.17;100.00
76404;BME280;65232;48.358;2.122;2023-11-18T02:07:38;101678.00;;;9.21;100.00
76404;BME280;65232;48.358;2.122;2023-11-18T02:08:04;101674.47;;;9.20;100.00
76404;BME280;65232;48.358;2.122;2023-11-18T02:08:30;101676.78;;;9.27;100.00
76404;BME280;65232;48.358;2.122;2023-11-18T02:08:55;101673.53;;;9.22;100.00
76404;BME280;65232;48.358;2.122;2023-11-18T02:09:22;101680.13;;;9.30;100.00
76404;BME280;65232;48.358;2.122;2023-11-18T02:09:52;101683.34;;;9.35;100.00
76404;BME280;65232;48.358;2.122;2023-11-18T02:10:18;101677.44;;;9.30;100.00
76404;BME280;65232;48.358;2.122;2023-11-18T02:10:57;101683.47;;;9.34;100.00
76404;BME280;65232;48.358;2.122;2023-11-18T02:11:30;101680.78;;;9.34;100.00
76404;BME280;65232;48.358;2.122;2023-11-18T02:12:19;101677.44;;;9.30;100.00
76404;BME280;65232;48.358;2.122;2023-11-18T02:12:57;101681.94;;;9.30;100.00
76404;BME280;65232;48.358;2.122;2023-11-18T02:13:29;101687.63;;;9.38;100.00
76404;BME280;65232;48.358;2.122;2023-11-18T02:13:58;101680.03;;;9.32;100.00
76404;BME280;65232;48.358;2.122;2023-11-18T02:14:30;101682.13;;;9.27;100.00
76404;BME280;65232;48.358;2.122;2023-11-18T02:14:57;101681.25;;;9.26;100.00
76404;BME280;65232;48.358;2.122;2023-11-18T02:15:23;101681.44;;;9.23;100.00
76404;BME280;65232;48.358;2.122;2023-11-18T02:15:53;101675.81;;;9.28;100.00
76404;BME280;65232;48.358;2.122;2023-11-18T02:16:19;101673.25;;;9.26;100.00
76404;BME280;65232;48.358;2.122;2023-11-18T02:16:48;101675.34;;;9.21;100.00
76404;BME280;65232;48.358;2.122;2023-11-18T02:17:14;101675.16;;;9.24;100.00
76404;BME280;65232;48.358;2.122;2023-11-18T02:17:43;101678.50;;;9.28;100.00